Eureka の空港の天気 - METARとTAF

Eureka ( CWEU / ) - カナダ ヌナブト準州Eureka
飛行場実況気象(Metar)
観測時間04/25 01:00 CDT (04/25 06:00 UTC)
風向・風速静穏 0m/s
視程10km以上
天気現象
なし
気温-26℃
湿度83%
気圧1010hPa
METARCWEU 250600Z 00000KT 15SM SKC M26/M28 A2982 RMK SLP100
過去の天気等 Google飛行場航空写真 Wunderground天気予報

過去48時間のMETAR

飛行場予報(TAF)
データがありません